Time;durP1;ratioP1;P1;durP2;ratioP2;P2;SDS_P1;SDS_P2;PMS_P1;PMS_P2;Temp;Humidity;BMP_temperature;BMP_pressure;BME280_temperature;BME280_humidity;BME280_pressure;Samples;Min_cycle;Max_cycle;Signal;HPM_P1;HPM_P2
2022/06/22 04:56:50;;;;;;;17.63;16.83;;;;;;;-141.02;100.00;82999.78;5130891;27;21099;-76
2022/06/22 04:59:19;;;;;;;17.35;16.55;;;;;;;-141.02;100.00;83013.38;5130301;27;20219;-79
2022/06/22 05:01:53;;;;;;;17.40;16.60;;;;;;;-141.02;100.00;82988.13;5130498;27;20197;-78
2022/06/22 05:04:27;;;;;;;17.48;16.67;;;;;;;-141.02;100.00;83017.25;5130131;27;20247;-78
2022/06/22 05:07:00;;;;;;;17.73;16.92;;;;;;;-141.02;100.00;82896.81;5130436;27;20193;-78
2022/06/22 05:09:34;;;;;;;16.80;16.10;;;;;;;-141.02;100.00;83050.28;5130401;27;20192;-77
2022/06/22 05:12:04;;;;;;;16.73;16.02;;;;;;;-141.02;100.00;83073.59;5130071;27;20263;-77
2022/06/22 05:14:33;;;;;;;16.92;16.23;;;;;;;-141.02;100.00;83038.63;5130209;27;20275;-77
2022/06/22 05:17:03;;;;;;;17.98;17.17;;;;;;;-141.02;99.58;82976.47;5130428;27;20199;-77
2022/06/22 05:19:37;;;;;;;17.75;16.95;;;;;;;-141.02;96.53;82945.38;5130083;27;20288;-78
2022/06/22 05:22:12;;;;;;;18.13;17.33;;;;;;;-141.02;93.22;82891.00;5130192;27;20185;-78
2022/06/22 05:24:43;;;;;;;17.73;16.92;;;;;;;-141.02;93.15;82922.06;5129674;27;20222;-76
2022/06/22 05:27:19;;;;;;;17.33;16.52;;;;;;;-141.02;93.40;82906.53;5130095;27;20189;-77
2022/06/22 05:29:49;;;;;;;17.17;16.38;;;;;;;-141.02;96.02;82891.00;5129993;27;20191;-76
2022/06/22 05:32:25;;;;;;;16.45;15.75;;;;;;;-141.02;100.00;82999.78;5129590;27;20283;-77
2022/06/22 05:34:55;;;;;;;16.33;15.63;;;;;;;-141.02;100.00;83061.94;5129899;27;20275;-77
2022/06/22 05:37:28;;;;;;;16.15;15.50;;;;;;;-141.02;100.00;83026.97;5129891;27;20192;-77
2022/06/22 05:39:57;;;;;;;16.42;15.73;;;;;;;-141.02;100.00;83081.34;5129823;27;20185;-76
2022/06/22 05:42:27;;;;;;;16.70;16.00;;;;;;;-141.02;100.00;83073.59;5129727;27;20262;-76
2022/06/22 05:44:54;;;;;;;16.73;16.02;;;;;;;-141.02;100.00;83050.28;5130608;27;20327;-77
2022/06/22 05:47:25;;;;;;;17.02;16.23;;;;;;;-141.02;100.00;83026.97;5129254;27;20196;-77
2022/06/22 05:49:57;;;;;;;16.50;15.80;;;;;;;-141.02;100.00;82995.88;5129640;27;20250;-77
2022/06/22 05:52:32;;;;;;;16.63;15.93;;;;;;;-141.02;99.97;82968.69;5129536;27;20269;-76
2022/06/22 05:55:06;;;;;;;16.40;15.70;;;;;;;-141.02;100.00;82968.69;5129174;27;20259;-77
2022/06/22 05:57:42;;;;;;;17.85;16.95;;;;;;;-141.02;100.00;83025.03;5116786;27;20189;-76
2022/06/22 06:00:15;;;;;;;17.25;16.45;;;;;;;-141.02;100.00;82945.38;5115702;27;20203;-77
2022/06/22 06:02:51;;;;;;;17.10;16.38;;;;;;;-141.02;99.75;82953.16;5115669;28;20239;-75
2022/06/22 06:05:25;;;;;;;16.90;16.20;;;;;;;-141.02;100.00;82949.28;5115569;28;20564;-76
2022/06/22 06:07:54;;;;;;;16.98;16.25;;;;;;;-141.02;100.00;82999.78;5116344;28;20272;-78
2022/06/22 06:10:25;;;;;;;17.70;16.80;;;;;;;-141.02;100.00;82988.13;5115532;28;20673;-78
2022/06/22 06:12:59;;;;;;;16.45;15.75;;;;;;;-141.02;100.00;83019.19;5115463;28;20189;-78
2022/06/22 06:15:27;;;;;;;17.65;16.85;;;;;;;-141.02;100.00;83965.34;5115134;28;20228;-76
2022/06/22 06:17:58;;;;;;;16.60;15.90;;;;;;;-141.02;100.00;83001.72;5115357;27;20720;-79
2022/06/22 06:20:29;;;;;;;16.73;15.95;;;;;;;-141.02;100.00;82993.94;5115042;28;20181;-77
2022/06/22 06:23:03;;;;;;;16.48;15.77;;;;;;;-141.02;99.68;82922.06;5114953;28;20677;-77
2022/06/22 06:28:28;;;;;;;18.30;17.30;;;;;;;-141.02;93.85;82925.97;5115542;28;20575;-80
2022/06/22 06:31:02;;;;;;;16.83;16.02;;;;;;;-141.02;94.99;82953.16;5114794;28;20611;-78
2022/06/22 06:33:34;;;;;;;18.33;17.40;;;;;;;-141.02;93.76;82914.31;5114841;28;20216;-77
2022/06/22 06:36:09;;;;;;;17.85;16.95;;;;;;;-141.02;93.31;82910.41;5114714;28;20612;-76
2022/06/22 06:38:39;;;;;;;17.30;16.50;;;;;;;-141.02;94.94;82922.06;5114659;28;20619;-74
2022/06/22 06:41:12;;;;;;;17.23;16.33;;;;;;;-141.02;92.69;82896.81;5114894;28;20205;-75
2022/06/22 06:43:48;;;;;;;17.10;16.30;;;;;;;-141.02;93.07;82929.84;5114936;28;20614;-78
2022/06/22 06:46:21;;;;;;;16.75;15.95;;;;;;;-141.02;92.79;82887.09;5114800;28;20248;-75
2022/06/22 06:48:54;;;;;;;16.98;16.17;;;;;;;-141.02;93.68;82916.25;5114486;28;20234;-77
2022/06/22 06:51:23;;;;;;;20.25;19.05;;;;;;;-141.02;92.72;82889.06;5114424;28;20275;-74
2022/06/22 06:53:56;;;;;;;17.60;16.70;;;;;;;-141.02;92.68;82879.34;5114351;28;20239;-77
2022/06/22 06:56:29;;;;;;;17.20;16.40;;;;;;;-141.02;93.47;82877.41;5114283;28;20232;-76
2022/06/22 06:59:00;;;;;;;17.02;16.23;;;;;;;-141.02;92.91;82898.75;5114614;28;20238;-75
2022/06/22 07:01:30;;;;;;;17.75;16.85;;;;;;;-141.02;90.22;82789.97;5114182;28;20288;-75
2022/06/22 07:04:02;;;;;;;18.08;17.08;;;;;;;-141.02;93.60;82875.44;5114140;28;20181;-79
2022/06/22 07:06:30;;;;;;;17.25;16.40;;;;;;;-141.02;95.51;82908.47;5114309;27;20320;-76
2022/06/22 07:09:01;;;;;;;18.40;17.40;;;;;;;-141.02;90.17;82830.78;5113362;27;20193;-78
2022/06/22 07:11:34;;;;;;;17.13;16.23;;;;;;;-141.02;92.21;82889.06;5114391;28;20264;-74
2022/06/22 07:14:09;;;;;;;17.42;16.58;;;;;;;-141.02;92.44;82863.78;5114590;28;20629;-74
2022/06/22 07:16:38;;;;;;;16.65;15.85;;;;;;;-141.02;93.79;82848.25;5113939;28;20242;-80
2022/06/22 07:19:12;;;;;;;16.92;16.13;;;;;;;-141.02;90.54;82819.13;5114143;28;20229;-76
2022/06/22 07:21:45;;;;;;;16.90;16.10;;;;;;;-141.02;90.44;82795.81;5114099;28;20242;-77
2022/06/22 07:24:18;;;;;;;20.63;18.75;;;;;;;-141.02;87.38;82716.16;5113817;28;20239;-76
2022/06/22 07:26:54;;;;;;;17.30;16.40;;;;;;;-141.02;86.91;82747.25;5113975;28;20213;-79
2022/06/22 07:29:29;;;;;;;21.48;19.60;;;;;;;-141.02;88.38;82797.75;5113989;28;20230;-75
2022/06/22 07:32:03;;;;;;;16.85;16.05;;;;;;;-141.02;88.66;82793.88;5113905;28;20239;-75
2022/06/22 07:34:36;;;;;;;17.40;16.50;;;;;;;-141.02;86.03;82733.66;5113631;28;20665;-78
2022/06/22 07:37:13;;;;;;;17.30;16.48;;;;;;;-141.02;88.31;82725.88;5113506;28;20189;-75
2022/06/22 07:39:46;;;;;;;16.88;16.08;;;;;;;-141.02;85.78;82723.94;5113826;28;20552;-77
2022/06/22 07:42:14;;;;;;;17.40;16.50;;;;;;;-141.02;83.80;82712.28;5114016;28;20268;-77
2022/06/22 07:44:43;;;;;;;17.40;16.58;;;;;;;-141.02;83.85;82727.84;5113353;28;20452;-76
2022/06/22 07:47:19;;;;;;;17.90;16.90;;;;;;;-141.02;83.57;82655.97;5113579;28;20197;-76
2022/06/22 07:49:51;;;;;;;17.88;16.98;;;;;;;-141.02;83.35;82671.50;5113360;28;20185;-74
2022/06/22 07:52:23;;;;;;;17.70;16.80;;;;;;;-141.02;82.75;82638.47;5113803;28;20181;-76
2022/06/22 07:54:53;;;;;;;18.90;17.90;;;;;;;-141.02;80.78;82607.41;5113253;28;20309;-76
2022/06/22 07:57:28;;;;;;;17.60;16.70;;;;;;;-141.02;81.04;82475.31;5113431;28;20242;-72
2022/06/22 08:00:01;;;;;;;18.60;17.60;;;;;;;-141.02;76.94;82506.41;5113150;28;20723;-80
2022/06/22 08:02:32;;;;;;;18.15;17.25;;;;;;;-141.02;77.02;82485.03;5113326;28;20207;-75
2022/06/22 08:05:04;;;;;;;18.50;17.60;;;;;;;-141.02;77.19;82510.28;5113008;28;20229;-73
2022/06/22 08:07:38;;;;;;;18.52;17.63;;;;;;;-141.02;75.85;82531.66;5113257;28;20216;-74
2022/06/22 08:10:11;;;;;;;19.45;18.05;;;;;;;-141.02;75.79;82479.22;5113288;28;20189;-74
2022/06/22 08:12:43;;;;;;;18.35;17.42;;;;;;;-141.02;76.91;82500.56;5113277;28;20188;-79
2022/06/22 08:15:16;;;;;;;18.55;17.55;;;;;;;-141.02;75.72;82516.13;5112958;28;20193;-76
2022/06/22 08:17:45;;;;;;;18.45;17.45;;;;;;;-141.02;76.86;82587.97;5112776;28;20268;-75
2022/06/22 08:20:15;;;;;;;18.45;17.50;;;;;;;-141.02;77.70;82591.88;5112538;28;20250;-76
2022/06/22 08:22:45;;;;;;;18.48;17.48;;;;;;;-141.02;78.54;82599.63;5112715;28;20189;-76
2022/06/22 08:25:15;;;;;;;19.67;18.58;;;;;;;-141.02;78.72;82605.47;5112935;28;20197;-76
2022/06/22 08:27:42;;;;;;;19.20;18.20;;;;;;;-141.02;77.86;82580.22;5112729;28;20228;-76
2022/06/22 08:30:13;;;;;;;18.83;17.73;;;;;;;-141.02;76.58;82556.91;5112683;28;20200;-80
2022/06/22 08:32:47;;;;;;;18.73;17.73;;;;;;;-141.02;75.85;82253.91;5112639;28;20284;-72
2022/06/22 08:35:19;;;;;;;18.63;17.63;;;;;;;-141.02;78.28;82560.78;5112849;28;20193;-76
2022/06/22 08:37:51;;;;;;;20.75;18.90;;;;;;;-141.02;75.88;82331.59;5112605;28;20189;-75
2022/06/22 08:40:30;;;;;;;19.02;18.02;;;;;;;-141.02;78.04;82549.13;5112544;28;20280;-75
2022/06/22 08:43:04;;;;;;;18.55;17.55;;;;;;;-141.02;76.89;82483.09;5112872;28;20189;-76
2022/06/22 08:46:08;;;;;;;18.20;17.23;;;;;;;-141.02;74.71;82545.25;5113516;28;20223;-79
2022/06/22 08:49:02;;;;;;;18.60;17.60;;;;;;;-141.02;75.56;82506.41;5112482;28;20204;-76
2022/06/22 08:51:55;;;;;;;18.88;17.88;;;;;;;-141.02;75.31;82525.81;5112616;28;20649;-76
2022/06/22 08:54:45;;;;;;;18.58;17.48;;;;;;;-141.02;75.12;82545.25;5112218;28;20235;-71
2022/06/22 08:57:22;;;;;;;18.73;17.70;;;;;;;-141.02;74.90;82504.47;5112784;28;20654;-75
2022/06/22 09:00:15;;;;;;;19.20;18.05;;;;;;;-141.02;73.21;82510.28;5112761;28;20185;-75
2022/06/22 09:03:30;;;;;;;19.30;17.77;;;;;;;-141.02;76.29;82514.16;5112706;28;20185;-77
2022/06/22 09:06:24;;;;;;;19.50;18.25;;;;;;;-141.02;71.93;82475.31;5069652;28;20418;-72
2022/06/22 09:09:29;;;;;;;18.38;17.38;;;;;;;-141.02;72.05;82397.63;5112658;28;20251;-75
2022/06/22 09:12:14;;;;;;;18.60;17.60;;;;;;;-141.02;69.60;82366.56;5112258;28;20284;-75
2022/06/22 09:15:09;;;;;;;18.80;17.77;;;;;;;-141.02;70.50;82411.25;5112263;28;20181;-76
2022/06/22 09:18:05;;;;;;;19.50;18.40;;;;;;;-141.02;69.01;82413.19;5112556;28;20193;-76
2022/06/22 09:20:46;;;;;;;18.83;17.77;;;;;;;-141.02;68.11;82310.25;5110099;28;20220;-76
2022/06/22 09:23:28;;;;;;;20.17;18.98;;;;;;;-141.02;69.18;82436.50;5112545;28;20238;-75
2022/06/22 09:26:05;;;;;;;20.30;19.17;;;;;;;-141.02;71.09;82521.94;5112359;28;20217;-72
2022/06/22 09:28:43;;;;;;;18.70;17.70;;;;;;;-141.02;71.97;82459.78;5112407;28;20193;-78
2022/06/22 09:31:28;;;;;;;19.00;18.00;;;;;;;-141.02;70.79;82436.50;5112967;28;20268;-76
2022/06/22 09:34:08;;;;;;;19.02;17.92;;;;;;;-141.02;72.63;82424.84;5116264;28;20242;-75
2022/06/22 09:37:08;;;;;;;18.98;17.98;;;;;;;-141.02;69.56;82374.34;5116240;28;20284;-76
2022/06/22 09:40:09;;;;;;;20.13;19.02;;;;;;;-141.02;68.88;82401.53;5115861;28;20701;-75
2022/06/22 09:43:06;;;;;;;19.08;18.00;;;;;;;-141.02;68.80;82409.28;5115801;28;20193;-76
2022/06/22 09:45:59;;;;;;;18.63;17.63;;;;;;;-141.02;71.28;82483.09;5113320;28;20196;-75
2022/06/22 09:49:14;;;;;;;20.80;19.40;;;;;;;-141.02;72.71;82485.03;5115639;28;20185;-74
2022/06/22 09:51:59;;;;;;;18.55;17.55;;;;;;;-141.02;70.83;82387.94;5079243;28;20197;-75
2022/06/22 09:57:53;;;;;;;19.40;18.30;;;;;;;-141.02;71.90;82457.84;5094017;28;20698;-76
2022/06/22 10:00:24;;;;;;;19.45;18.35;;;;;;;-141.02;72.75;82533.59;5115409;28;20703;-79
2022/06/22 10:03:27;;;;;;;19.75;18.42;;;;;;;-141.02;71.93;82529.72;5115683;27;20267;-76
2022/06/22 10:06:13;;;;;;;20.23;19.00;;;;;;;-141.02;72.34;82593.81;5115282;28;20766;-74
2022/06/22 10:09:00;;;;;;;18.52;17.52;;;;;;;-141.02;74.12;82471.44;5115251;28;20217;-79
2022/06/22 10:11:39;;;;;;;18.35;17.35;;;;;;;-141.02;72.58;82401.53;5115222;28;20659;-77
2022/06/22 10:14:33;;;;;;;19.38;18.27;;;;;;;-141.02;69.62;82304.41;5115533;28;20181;-79
2022/06/22 10:17:34;;;;;;;19.30;18.30;;;;;;;-141.02;68.68;82374.34;5115135;28;20228;-75
2022/06/22 10:20:23;;;;;;;19.13;18.13;;;;;;;-141.02;69.39;82424.84;5078836;28;20681;-75
2022/06/22 10:23:01;;;;;;;19.30;18.20;;;;;;;-141.02;70.31;82382.09;5115066;28;20189;-78
2022/06/22 10:26:01;;;;;;;18.98;17.88;;;;;;;-141.02;70.22;82364.63;5115318;28;20254;-79
2022/06/22 10:29:00;;;;;;;19.88;18.67;;;;;;;-141.02;69.27;82401.53;5114943;28;20235;-76
2022/06/22 10:31:38;;;;;;;19.23;18.13;;;;;;;-141.02;70.77;82382.09;5115190;28;20189;-80
2022/06/22 10:34:27;;;;;;;19.73;18.63;;;;;;;-141.02;68.80;82382.09;5114788;28;20666;-72
2022/06/22 10:37:29;;;;;;;18.83;17.83;;;;;;;-141.02;68.38;82407.34;5115073;28;20575;-77
2022/06/22 10:46:10;;;;;;;19.85;18.75;;;;;;;-141.02;69.29;82389.88;5114819;28;20200;-76
2022/06/22 10:49:16;;;;;;;21.48;20.25;;;;;;;-141.02;67.98;82329.66;5115146;28;20250;-75
2022/06/22 10:52:11;;;;;;;21.58;20.30;;;;;;;-141.02;65.64;82281.13;5114773;28;20200;-76
2022/06/22 10:54:59;;;;;;;20.45;19.25;;;;;;;-141.02;66.42;82261.69;5114263;28;20190;-80
2022/06/22 10:57:39;;;;;;;20.05;18.95;;;;;;;-141.02;66.88;82277.22;5114670;28;20224;-73
2022/06/22 11:00:15;;;;;;;20.88;19.67;;;;;;;-141.02;66.62;82298.59;5114668;28;20216;-78
2022/06/22 11:03:24;;;;;;;20.85;19.60;;;;;;;-141.02;66.68;82323.84;5114307;28;20191;-74
2022/06/22 11:06:14;;;;;;;19.83;18.73;;;;;;;-141.02;66.51;82230.63;5114416;28;20189;-77
2022/06/22 11:09:03;;;;;;;20.58;19.48;;;;;;;-141.02;65.44;82189.84;5114135;28;20185;-77
2022/06/22 11:11:43;;;;;;;20.45;19.35;;;;;;;-141.02;61.44;81947.09;5114357;28;20189;-75
2022/06/22 11:15:04;;;;;;;20.95;19.77;;;;;;;-141.02;63.53;82110.22;5114331;28;20363;-75
2022/06/22 11:17:54;;;;;;;19.92;18.83;;;;;;;-141.02;62.88;82036.41;5051173;28;20272;-76
2022/06/22 11:20:46;;;;;;;19.77;18.67;;;;;;;-141.02;62.50;82112.16;5051251;28;20278;-77
2022/06/22 11:23:25;;;;;;;19.98;18.77;;;;;;;-141.02;62.71;82133.50;5097019;28;20204;-76
2022/06/22 11:32:13;;;;;;;19.77;18.67;;;;;;;-141.02;62.80;82149.06;5114256;28;20216;-76
2022/06/22 11:35:20;;;;;;;21.33;19.65;;;;;;;-141.02;62.56;82152.94;5113762;28;20221;-75
2022/06/22 11:37:59;;;;;;;20.35;19.15;;;;;;;-141.02;62.37;82081.06;5095973;28;20201;-77
2022/06/22 11:40:48;;;;;;;20.15;18.95;;;;;;;-141.02;63.87;82162.66;5113535;28;20280;-78
2022/06/22 11:43:42;;;;;;;20.08;18.88;;;;;;;-141.02;64.28;82217.03;5113769;28;20219;-75
2022/06/22 11:46:18;;;;;;;20.08;18.88;;;;;;;-141.02;64.64;82248.09;5113588;28;20221;-78
2022/06/22 11:49:09;;;;;;;20.73;19.52;;;;;;;-141.02;64.00;82222.84;5113363;28;20601;-77
2022/06/22 11:52:05;;;;;;;20.80;19.65;;;;;;;-141.02;66.44;82141.28;5113322;28;20211;-77
2022/06/22 11:54:52;;;;;;;20.95;19.75;;;;;;;-141.02;63.13;82217.03;5112841;28;20604;-77
2022/06/22 11:58:10;;;;;;;26.65;23.90;;;;;;;-141.02;66.10;82226.72;5113173;28;20188;-74
2022/06/22 12:00:49;;;;;;;20.95;19.85;;;;;;;-141.02;62.42;82180.13;5070443;28;20194;-77
2022/06/22 12:03:47;;;;;;;21.13;20.02;;;;;;;-141.02;60.92;82098.56;5070476;28;20218;-77
2022/06/22 12:06:41;;;;;;;20.45;19.35;;;;;;;-141.02;61.03;82063.59;5107053;28;20723;-74
2022/06/22 12:09:31;;;;;;;21.80;20.50;;;;;;;-141.02;63.43;82176.25;5079697;28;20233;-75
2022/06/22 12:12:30;;;;;;;20.58;19.42;;;;;;;-141.02;60.71;82071.38;5113340;28;20189;-75
2022/06/22 12:15:09;;;;;;;21.17;19.98;;;;;;;-141.02;61.00;82125.75;5110750;28;20199;-75
2022/06/22 12:18:01;;;;;;;20.95;19.85;;;;;;;-141.02;64.35;82275.28;5113172;28;20182;-78
2022/06/22 12:20:42;;;;;;;19.90;18.80;;;;;;;-141.02;64.28;82189.84;5113212;28;20208;-77
2022/06/22 12:23:20;;;;;;;20.55;19.45;;;;;;;-141.02;62.13;82180.13;5113177;28;20253;-76
2022/06/22 12:26:04;;;;;;;21.23;20.05;;;;;;;-141.02;62.49;82156.81;5113054;28;20207;-77
2022/06/22 12:28:47;;;;;;;20.88;19.77;;;;;;;-141.02;62.49;82176.25;5113108;28;20236;-75
2022/06/22 12:31:17;;;;;;;21.20;20.00;;;;;;;-141.02;63.72;82158.75;5113526;28;20190;-78
2022/06/22 12:33:51;;;;;;;20.15;19.05;;;;;;;-141.02;61.38;82063.59;5112878;28;20585;-77
2022/06/22 12:36:25;;;;;;;21.35;20.00;;;;;;;-141.02;59.46;81989.81;5113043;28;20188;-73
2022/06/22 12:38:59;;;;;;;21.35;20.10;;;;;;;-141.02;61.25;82073.31;5112580;28;20642;-76
2022/06/22 12:41:44;;;;;;;20.60;19.40;;;;;;;-141.02;60.97;82067.47;5112928;28;20561;-75
2022/06/22 12:44:45;;;;;;;20.30;19.10;;;;;;;-141.02;62.48;82048.06;5112724;28;20221;-75
2022/06/22 12:47:31;;;;;;;19.73;18.63;;;;;;;-141.02;62.84;82129.63;5112364;28;20275;-76
2022/06/22 12:50:29;;;;;;;19.58;18.48;;;;;;;-141.02;61.23;82217.03;5112844;28;20264;-73
2022/06/22 12:53:01;;;;;;;20.35;19.25;;;;;;;-141.02;61.59;82059.72;5112512;28;20250;-77
2022/06/22 12:55:34;;;;;;;22.63;21.25;;;;;;;-141.02;59.88;81997.56;5112295;28;20576;-75
2022/06/22 12:58:09;;;;;;;24.08;21.98;;;;;;;-141.02;58.25;81989.81;5112416;28;20726;-74
2022/06/22 13:00:37;;;;;;;19.88;18.77;;;;;;;-141.02;58.84;82009.22;5112923;28;20191;-76
2022/06/22 13:03:05;;;;;;;20.80;19.50;;;;;;;-141.02;60.18;82007.28;5112659;28;20274;-78
2022/06/22 13:05:36;;;;;;;21.38;20.17;;;;;;;-141.02;58.57;81931.53;5112565;28;20225;-77
2022/06/22 13:08:07;;;;;;;22.08;20.67;;;;;;;-141.02;58.20;81974.28;5116974;28;20303;-78
2022/06/22 13:10:39;;;;;;;22.42;21.13;;;;;;;-141.02;58.51;82044.19;5116740;28;20546;-74
2022/06/22 13:13:15;;;;;;;21.65;20.35;;;;;;;-141.02;59.17;81997.56;5116766;27;20250;-75
2022/06/22 13:15:46;;;;;;;19.95;18.83;;;;;;;-141.02;60.39;82018.94;5116606;28;20275;-77
2022/06/22 13:18:24;;;;;;;21.85;20.50;;;;;;;-141.02;57.70;81958.72;5116351;28;20189;-76
2022/06/22 13:21:00;;;;;;;20.77;19.58;;;;;;;-141.02;57.29;81908.25;5117083;27;20189;-75
2022/06/22 13:23:40;;;;;;;21.02;19.73;;;;;;;-141.02;57.33;82036.41;5116521;28;20200;-75
2022/06/22 13:26:21;;;;;;;21.65;20.35;;;;;;;-141.02;57.58;81954.84;5116465;28;20181;-76
2022/06/22 13:28:56;;;;;;;21.77;20.38;;;;;;;-141.02;57.68;81943.19;5116070;28;20606;-77
2022/06/22 13:31:28;;;;;;;20.58;19.27;;;;;;;-141.02;58.71;81966.50;5116363;28;20189;-76
2022/06/22 13:33:59;;;;;;;20.48;19.27;;;;;;;-141.02;57.09;81923.78;5115978;28;20281;-78
2022/06/22 13:36:38;;;;;;;21.42;20.13;;;;;;;-141.02;57.23;82024.75;5116271;28;20262;-74
2022/06/22 13:39:22;;;;;;;21.90;20.60;;;;;;;-141.02;57.11;81904.34;5116158;28;20186;-75
2022/06/22 13:42:16;;;;;;;22.02;20.63;;;;;;;-141.02;56.27;81834.44;5115871;28;20250;-78
2022/06/22 13:45:04;;;;;;;22.17;20.77;;;;;;;-141.02;56.54;81783.97;5116112;28;20272;-75
2022/06/22 13:47:47;;;;;;;22.58;21.17;;;;;;;-141.02;56.38;81859.69;5116499;28;20217;-76
2022/06/22 13:50:53;;;;;;;22.67;21.27;;;;;;;-141.02;57.31;81851.94;5115644;28;20276;-76
2022/06/22 13:53:35;;;;;;;22.00;20.70;;;;;;;-141.02;56.86;81861.63;5115994;28;20188;-77
2022/06/22 13:56:11;;;;;;;24.05;22.55;;;;;;;-141.02;56.76;81550.94;5115577;28;20609;-77
2022/06/22 13:58:44;;;;;;;21.85;20.45;;;;;;;-141.02;58.16;81931.53;5115528;28;20220;-77
2022/06/22 14:01:20;;;;;;;22.55;21.15;;;;;;;-141.02;57.63;81850.00;5115477;28;20181;-78
2022/06/22 14:03:55;;;;;;;20.75;19.45;;;;;;;-141.02;56.10;81752.91;5115627;28;20185;-80
2022/06/22 14:06:29;;;;;;;20.80;19.50;;;;;;;-141.02;57.16;81941.25;5115671;28;20220;-76
2022/06/22 14:09:07;;;;;;;21.80;20.40;;;;;;;-141.02;57.28;81881.06;5115269;28;20307;-76
2022/06/22 14:11:58;;;;;;;21.88;20.48;;;;;;;-141.02;55.81;82038.34;5115252;28;20181;-77
2022/06/22 14:14:31;;;;;;;23.67;22.15;;;;;;;-141.02;57.20;81941.25;5115623;27;20232;-78
2022/06/22 14:17:08;;;;;;;22.02;20.63;;;;;;;-141.02;57.97;81939.31;5115037;28;20193;-77
2022/06/22 14:19:43;;;;;;;21.92;20.52;;;;;;;-141.02;57.17;81927.66;5115425;28;20196;-76
2022/06/22 14:22:20;;;;;;;23.83;22.27;;;;;;;-141.02;57.17;81950.97;5115108;28;20220;-77
2022/06/22 14:24:50;;;;;;;22.10;20.80;;;;;;;-141.02;57.53;81931.53;5115346;28;20677;-76
2022/06/22 14:27:47;;;;;;;58.22;41.75;;;;;;;-141.02;56.20;81886.88;5114919;28;20315;-73
2022/06/22 14:30:24;;;;;;;23.25;21.85;;;;;;;-141.02;57.89;81962.63;5111351;28;20225;-76
2022/06/22 14:33:16;;;;;;;23.17;21.75;;;;;;;-141.02;56.01;81916.00;5115159;28;20264;-81
2022/06/22 14:35:53;;;;;;;24.92;23.17;;;;;;;-141.02;56.24;81904.34;5104818;28;20219;-75
2022/06/22 14:38:26;;;;;;;23.30;21.80;;;;;;;-141.02;56.45;81929.59;5114849;28;20224;-79
2022/06/22 14:41:12;;;;;;;25.45;23.65;;;;;;;-141.02;57.83;81923.78;5114759;28;20223;-76
2022/06/22 14:43:48;;;;;;;23.30;21.80;;;;;;;-141.02;58.30;81881.06;5115010;28;20208;-77
2022/06/22 14:46:21;;;;;;;23.63;22.13;;;;;;;-141.02;57.55;81983.97;5114920;28;20277;-77
2022/06/22 14:48:57;;;;;;;23.08;21.58;;;;;;;-141.02;58.26;81834.44;5114836;27;20220;-79
2022/06/22 14:51:35;;;;;;;22.45;21.05;;;;;;;-141.02;58.02;82003.41;5114523;28;20230;-78
2022/06/22 14:54:10;;;;;;;22.73;21.33;;;;;;;-141.02;58.36;81919.91;5114484;28;20189;-78
2022/06/22 14:56:45;;;;;;;23.33;21.83;;;;;;;-141.02;57.95;81972.31;5114335;28;20319;-76
2022/06/22 14:59:28;;;;;;;23.20;21.70;;;;;;;-141.02;57.40;81985.91;5114313;28;20224;-76
2022/06/22 15:01:59;;;;;;;22.77;21.38;;;;;;;-141.02;58.42;82024.75;5114837;28;20211;-77
2022/06/22 15:04:37;;;;;;;21.23;19.92;;;;;;;-141.02;58.72;82028.66;5114287;28;20712;-77
2022/06/22 15:07:16;;;;;;;21.83;20.42;;;;;;;-141.02;57.89;82042.25;5114695;28;20208;-77
2022/06/22 15:09:51;;;;;;;22.02;20.63;;;;;;;-141.02;58.10;82026.69;5114501;28;20185;-80
2022/06/22 15:15:28;;;;;;;22.10;20.70;;;;;;;-141.02;58.59;82046.13;5114448;28;20239;-76
2022/06/22 15:18:03;;;;;;;23.05;21.45;;;;;;;-141.02;58.44;82048.06;5114015;28;20606;-72
2022/06/22 15:20:40;;;;;;;23.05;21.63;;;;;;;-141.02;58.42;82059.72;5114246;28;20181;-74
2022/06/22 15:23:15;;;;;;;25.33;23.63;;;;;;;-141.02;59.69;82081.06;5114210;28;20189;-76
2022/06/22 15:25:51;;;;;;;23.58;22.08;;;;;;;-141.02;59.34;82106.31;5114115;28;20188;-75
2022/06/22 15:28:26;;;;;;;23.55;22.05;;;;;;;-141.02;59.61;82106.31;5113847;28;20208;-76
2022/06/22 15:31:03;;;;;;;23.50;22.00;;;;;;;-141.02;59.28;82139.34;5113645;28;20188;-78
2022/06/22 15:33:34;;;;;;;25.38;23.45;;;;;;;-141.02;58.53;82100.50;5113793;28;20235;-77
2022/06/22 15:36:06;;;;;;;25.90;24.20;;;;;;;-141.02;59.02;82117.97;5113595;28;20228;-78
2022/06/22 15:38:43;;;;;;;26.13;24.33;;;;;;;-141.02;59.83;82106.31;5113552;28;20221;-79
2022/06/22 15:41:24;;;;;;;25.50;23.90;;;;;;;-141.02;59.98;82110.22;5113515;28;20193;-79
2022/06/22 15:44:17;;;;;;;23.95;22.45;;;;;;;-141.02;60.48;81906.31;5113849;28;20216;-87
2022/06/22 15:46:53;;;;;;;22.05;20.65;;;;;;;-141.02;59.93;82156.81;5113730;28;20631;-78
2022/06/22 15:49:27;;;;;;;23.13;21.63;;;;;;;-141.02;59.59;82137.41;5113361;28;20269;-77
2022/06/22 15:51:58;;;;;;;23.60;22.10;;;;;;;-141.02;59.26;82114.09;5113640;28;20230;-80
2022/06/22 15:54:34;;;;;;;24.63;23.02;;;;;;;-141.02;59.41;82129.63;5113094;28;20234;-79
2022/06/22 15:57:07;;;;;;;24.88;23.27;;;;;;;-141.02;57.38;82026.69;5113550;28;20261;-76
2022/06/22 15:59:43;;;;;;;24.13;22.52;;;;;;;-141.02;58.10;82063.59;5113459;28;20189;-77
2022/06/22 16:02:38;;;;;;;22.83;21.33;;;;;;;-141.02;57.19;82036.41;5113164;28;20604;-77
2022/06/22 16:05:15;;;;;;;23.20;21.70;;;;;;;-141.02;57.90;82083.03;5113427;28;20268;-76
2022/06/22 16:07:50;;;;;;;30.02;22.73;;;;;;;-141.02;58.10;82100.50;5113324;28;20221;-79
2022/06/22 16:10:22;;;;;;;23.15;21.63;;;;;;;-141.02;58.79;82145.16;5113625;28;20263;-77
2022/06/22 16:16:03;;;;;;;26.13;23.90;;;;;;;-141.02;58.73;82149.06;5070359;28;20248;-76
2022/06/22 16:18:39;;;;;;;23.02;21.52;;;;;;;-141.02;59.52;82164.59;5105455;28;20284;-75
2022/06/22 16:21:12;;;;;;;24.10;22.40;;;;;;;-141.02;60.34;82180.13;5112892;28;20280;-77
2022/06/22 16:23:58;;;;;;;22.73;21.25;;;;;;;-141.02;60.49;82203.44;5113084;28;20234;-75
2022/06/22 16:26:33;;;;;;;23.77;22.20;;;;;;;-141.02;61.09;82218.97;5113157;28;20216;-77
2022/06/22 16:29:09;;;;;;;22.20;20.70;;;;;;;-141.02;61.46;82199.53;5112977;28;20248;-77
2022/06/22 16:31:44;;;;;;;22.77;21.27;;;;;;;-141.02;62.32;82265.56;5113049;28;20220;-79
2022/06/22 16:34:21;;;;;;;22.42;20.95;;;;;;;-141.02;63.53;82372.38;5112991;28;20185;-77
2022/06/22 16:36:56;;;;;;;23.67;21.90;;;;;;;-141.02;63.75;82308.31;5112652;28;20195;-79
2022/06/22 16:39:37;;;;;;;22.80;21.30;;;;;;;-141.02;63.69;82351.03;5112932;28;20264;-77
2022/06/22 16:42:13;;;;;;;21.65;20.25;;;;;;;-141.02;63.59;82325.78;5112381;27;20185;-77
2022/06/22 16:44:49;;;;;;;22.00;20.60;;;;;;;-141.02;63.90;82366.56;5113110;28;20257;-78
2022/06/22 16:47:18;;;;;;;23.00;21.60;;;;;;;-141.02;64.32;82409.28;5112274;28;20220;-74
2022/06/22 16:49:51;;;;;;;23.20;21.70;;;;;;;-141.02;65.17;82459.78;5112941;28;20228;-78
2022/06/22 16:52:23;;;;;;;22.40;21.00;;;;;;;-141.02;65.40;82203.44;5112818;28;20188;-79
2022/06/22 16:54:53;;;;;;;22.90;21.50;;;;;;;-141.02;65.57;82455.91;5112401;28;20702;-79
2022/06/22 16:57:22;;;;;;;21.65;20.35;;;;;;;-141.02;66.01;82471.44;5112681;28;20232;-80
2022/06/22 16:59:56;;;;;;;21.95;20.55;;;;;;;-141.02;66.38;82475.31;5112494;28;20284;-78
2022/06/22 17:02:33;;;;;;;21.33;20.02;;;;;;;-141.02;66.54;82455.91;5113208;28;20227;-78
2022/06/22 17:05:11;;;;;;;21.15;19.90;;;;;;;-141.02;66.67;82242.28;5112380;28;20689;-80
2022/06/22 17:07:48;;;;;;;21.05;19.83;;;;;;;-141.02;66.26;82448.13;5112486;28;20714;-84
2022/06/22 17:10:26;;;;;;;21.35;20.05;;;;;;;-141.02;67.20;82370.44;5112361;28;20241;-89
2022/06/22 17:12:59;;;;;;;21.45;20.15;;;;;;;-141.02;67.14;82486.97;5112359;28;20229;-78
2022/06/22 17:15:35;;;;;;;21.45;20.15;;;;;;;-141.02;67.86;82510.28;5112476;28;20221;-79